Time;durP1;ratioP1;P1;durP2;ratioP2;P2;SDS_P1;SDS_P2;PMS_P1;PMS_P2;Temp;Humidity;BMP_temperature;BMP_pressure;BME280_temperature;BME280_humidity;BME280_pressure;Samples;Min_cycle;Max_cycle;Signal;HPM_P1;HPM_P2
2022/07/08 00:00:42;;;;;;;2.10;1.80;;;;;;;14.17;91.54;96941.31;107235;1270;99320;-81
2022/07/08 00:03:19;;;;;;;2.70;2.30;;;;;;;14.19;91.36;96937.28;105900;1267;2041866;-82
2022/07/08 00:05:53;;;;;;;2.40;2.20;;;;;;;14.17;91.12;96932.83;105896;1267;1994255;-81
2022/07/08 00:08:27;;;;;;;3.00;2.10;;;;;;;14.13;91.04;96928.21;107242;1268;107591;-82
2022/07/08 00:11:10;;;;;;;2.50;2.00;;;;;;;14.06;91.15;96923.70;107210;1267;1816665;-81
2022/07/08 00:13:41;;;;;;;3.00;1.80;;;;;;;14.04;91.22;96926.13;105609;1268;2373532;-81
2022/07/08 00:16:14;;;;;;;5.00;2.00;;;;;;;13.97;91.37;96925.41;107491;1267;92041;-81
2022/07/08 00:18:52;;;;;;;2.10;1.70;;;;;;;13.88;91.43;96926.88;101461;1268;4347419;-81
2022/07/08 00:21:28;;;;;;;2.40;2.20;;;;;;;13.81;91.70;96923.95;99699;1270;5604915;-82
2022/07/08 00:24:02;;;;;;;2.40;1.90;;;;;;;13.75;91.88;96923.25;107451;1270;92731;-82
2022/07/08 00:26:38;;;;;;;2.20;1.80;;;;;;;13.72;91.96;96926.45;97449;1271;5361167;-81
2022/07/08 00:29:12;;;;;;;1.90;1.50;;;;;;;13.71;92.09;96930.66;106025;1270;1737689;-82
2022/07/08 00:31:44;;;;;;;2.80;1.80;;;;;;;13.70;92.16;96929.93;106337;1270;1393089;-81
2022/07/08 00:34:18;;;;;;;3.10;1.80;;;;;;;13.69;92.23;96936.03;104605;1270;2022790;-81
2022/07/08 00:36:53;;;;;;;1.90;1.70;;;;;;;13.67;92.38;96933.45;107328;1267;124601;-81
2022/07/08 00:39:25;;;;;;;2.80;1.70;;;;;;;13.64;92.34;96927.07;106112;1267;1740473;-81
2022/07/08 00:42:01;;;;;;;4.60;1.90;;;;;;;13.60;92.46;96931.62;105208;1267;2009128;-81
2022/07/08 00:44:41;;;;;;;2.00;1.80;;;;;;;13.56;92.61;96933.81;105902;1268;1827224;-80
2022/07/08 00:47:13;;;;;;;2.20;2.00;;;;;;;13.53;92.78;96933.48;105500;1268;2575282;-81
2022/07/08 00:49:50;;;;;;;3.00;1.90;;;;;;;13.48;93.02;96932.22;105808;1268;2035350;-81
2022/07/08 00:52:21;;;;;;;2.90;2.10;;;;;;;13.45;93.50;96925.13;106192;1267;1674535;-81
2022/07/08 00:54:53;;;;;;;2.70;2.10;;;;;;;13.46;93.78;96924.52;106023;1270;1788342;-81
2022/07/08 00:57:30;;;;;;;2.60;2.00;;;;;;;13.49;93.70;96924.90;104828;1268;1798341;-81
2022/07/08 01:00:12;;;;;;;2.10;2.00;;;;;;;13.53;93.82;96930.23;107337;1267;120277;-81
2022/07/08 01:02:48;;;;;;;3.50;1.90;;;;;;;13.60;93.79;96929.77;100150;1267;2668385;-81
2022/07/08 01:05:36;;;;;;;2.40;2.20;;;;;;;13.59;93.56;96922.36;105883;1267;2044594;-81
2022/07/08 01:08:09;;;;;;;2.80;2.00;;;;;;;13.56;93.63;96924.97;102512;1267;2438231;-80
2022/07/08 01:10:41;;;;;;;2.70;2.20;;;;;;;13.51;93.78;96925.67;105814;1268;1845317;-81
2022/07/08 01:13:16;;;;;;;3.60;2.10;;;;;;;13.49;94.12;96929.86;107356;1267;128574;-81
2022/07/08 01:15:49;;;;;;;3.10;2.30;;;;;;;13.47;94.40;96930.59;101110;1268;4495650;-81
2022/07/08 01:18:30;;;;;;;3.40;2.90;;;;;;;13.47;94.65;96931.86;106244;1269;1276021;-81
2022/07/08 01:21:10;;;;;;;3.30;2.10;;;;;;;13.50;94.42;96931.81;107336;1269;126801;-81
2022/07/08 01:23:43;;;;;;;4.30;2.40;;;;;;;13.53;94.35;96925.72;105480;1270;2439336;-81
2022/07/08 01:26:16;;;;;;;2.40;2.20;;;;;;;13.56;94.44;96927.85;106275;1267;1512575;-81
2022/07/08 01:28:58;;;;;;;3.20;1.90;;;;;;;13.66;94.62;96923.48;102158;1267;4774933;-81
2022/07/08 01:31:34;;;;;;;3.50;2.60;;;;;;;13.75;94.49;96925.89;107560;1267;136782;-81
2022/07/08 01:34:09;;;;;;;3.20;2.60;;;;;;;13.77;94.24;96927.05;101492;1270;5319128;-81
2022/07/08 01:36:48;;;;;;;2.90;2.60;;;;;;;13.81;94.10;96927.43;106246;1268;1409900;-81
2022/07/08 01:39:19;;;;;;;3.80;2.30;;;;;;;13.80;93.93;96926.27;107099;1270;107577;-81
2022/07/08 01:41:57;;;;;;;2.40;2.20;;;;;;;13.78;93.84;96924.20;102917;1270;5548726;-81
2022/07/08 01:44:37;;;;;;;4.00;2.50;;;;;;;13.80;93.93;96926.47;107180;1267;105420;-80
2022/07/08 01:47:17;;;;;;;2.50;2.30;;;;;;;13.83;93.83;96932.55;107304;1266;125587;-81
2022/07/08 01:49:51;;;;;;;2.70;2.40;;;;;;;13.88;93.78;96932.25;103038;1268;5499290;-81
2022/07/08 01:52:31;;;;;;;3.00;2.60;;;;;;;13.91;93.84;96932.77;107161;1267;147430;-81
2022/07/08 01:55:06;;;;;;;5.50;3.00;;;;;;;13.95;93.69;96937.69;107146;1268;155233;-80
2022/07/08 01:57:45;;;;;;;2.60;2.40;;;;;;;14.04;93.72;96940.42;106372;1268;1336252;-81
2022/07/08 02:00:24;;;;;;;3.30;2.20;;;;;;;14.11;93.57;96942.92;106088;1267;1655980;-81
2022/07/08 02:02:57;;;;;;;3.50;2.30;;;;;;;14.09;93.00;96940.23;107413;1267;113913;-81
2022/07/08 02:05:34;;;;;;;5.30;2.70;;;;;;;14.04;92.96;96944.31;107437;1267;140255;-81
2022/07/08 02:08:10;;;;;;;3.80;2.60;;;;;;;14.00;93.02;96947.74;104811;1270;2072418;-81
2022/07/08 02:13:40;;;;;;;3.40;2.70;;;;;;;14.05;93.10;96947.59;107275;1267;144910;-81
2022/07/08 02:16:17;;;;;;;2.40;2.20;;;;;;;14.01;92.92;96946.22;101946;1267;2544584;-81
2022/07/08 02:18:48;;;;;;;3.50;3.20;;;;;;;13.97;92.99;96946.73;107081;1267;134271;-81
2022/07/08 02:21:22;;;;;;;3.00;2.60;;;;;;;13.93;93.10;96948.11;107222;1268;132428;-81
2022/07/08 02:23:58;;;;;;;3.50;2.50;;;;;;;13.88;93.31;96953.46;105613;1267;2267230;-81
2022/07/08 02:26:36;;;;;;;3.60;2.90;;;;;;;13.85;93.27;96955.02;107378;1267;144951;-81
2022/07/08 02:29:11;;;;;;;3.30;2.90;;;;;;;13.85;93.41;96958.09;107302;1268;113664;-82
2022/07/08 02:31:43;;;;;;;3.50;2.70;;;;;;;13.85;93.39;96955.65;98569;1270;5068554;-82
2022/07/08 02:34:18;;;;;;;2.50;2.30;;;;;;;13.81;93.35;96959.29;105882;1270;1950242;-81
2022/07/08 02:36:52;;;;;;;4.90;2.80;;;;;;;13.79;93.49;96961.88;105058;1270;1749331;-82
2022/07/08 02:39:27;;;;;;;4.30;3.10;;;;;;;13.74;93.57;96964.98;104450;1270;2285875;-82
2022/07/08 02:42:06;;;;;;;3.90;2.80;;;;;;;13.66;93.83;96968.27;107334;1269;120671;-81
2022/07/08 02:44:42;;;;;;;3.20;2.70;;;;;;;13.60;94.09;96967.79;96921;1270;5055501;-81
2022/07/08 02:47:17;;;;;;;4.00;2.60;;;;;;;13.56;94.32;96971.27;107118;1270;167463;-81
2022/07/08 02:49:50;;;;;;;3.10;2.80;;;;;;;13.49;94.57;96971.79;107267;1270;123056;-81
2022/07/08 02:52:22;;;;;;;3.10;2.70;;;;;;;13.43;94.89;96972.73;97562;1270;5409082;-81
2022/07/08 02:54:55;;;;;;;4.80;2.80;;;;;;;13.39;95.24;96973.11;105684;1270;1749527;-81
2022/07/08 02:57:27;;;;;;;2.80;2.50;;;;;;;13.38;95.48;96977.60;105710;1270;2044495;-81
2022/07/08 03:00:03;;;;;;;3.60;3.30;;;;;;;13.38;95.69;96979.30;102911;1270;2286508;-81
2022/07/08 03:02:39;;;;;;;3.70;2.60;;;;;;;13.40;95.67;96982.67;107158;1271;106125;-81
2022/07/08 03:05:13;;;;;;;3.40;2.80;;;;;;;13.45;95.85;96989.15;106917;1270;221821;-81
2022/07/08 03:07:45;;;;;;;3.50;3.10;;;;;;;13.49;95.91;96991.92;104410;1270;2032314;-81
2022/07/08 03:10:18;;;;;;;4.80;2.90;;;;;;;13.53;95.95;96992.83;105170;1270;2539119;-81
2022/07/08 03:12:51;;;;;;;5.00;3.20;;;;;;;13.59;95.84;96996.91;105738;1269;1966290;-81
2022/07/08 03:15:22;;;;;;;4.40;3.10;;;;;;;13.65;95.88;96999.36;104115;1270;2084264;-81
2022/07/08 03:17:57;;;;;;;3.30;3.00;;;;;;;13.75;95.77;96999.45;107208;1270;149791;-81
2022/07/08 03:20:29;;;;;;;4.30;3.60;;;;;;;13.82;95.56;97000.10;107317;1270;96388;-81
2022/07/08 03:23:01;;;;;;;4.50;3.70;;;;;;;13.87;95.38;97003.27;102494;1269;1836464;-82
2022/07/08 03:25:35;;;;;;;5.20;3.80;;;;;;;13.93;95.29;97008.03;107198;1270;107912;-81
2022/07/08 03:28:09;;;;;;;5.50;3.60;;;;;;;13.96;95.00;97009.81;105311;1270;2569892;-80
2022/07/08 03:30:41;;;;;;;3.30;3.00;;;;;;;14.03;94.97;97016.84;104326;1270;1886157;-81
2022/07/08 03:33:12;;;;;;;4.60;3.50;;;;;;;14.09;94.81;97023.38;105610;1270;2124819;-81
2022/07/08 03:35:44;;;;;;;6.80;3.80;;;;;;;14.13;94.81;97025.02;105921;1270;1826943;-81
2022/07/08 03:38:18;;;;;;;5.10;4.20;;;;;;;14.14;94.63;97028.41;104387;1270;2042185;-81
2022/07/08 03:43:41;;;;;;;4.80;4.30;;;;;;;14.16;94.45;97031.79;107098;1270;143852;-81
2022/07/08 03:46:14;;;;;;;4.30;3.90;;;;;;;14.21;94.36;97036.23;104593;1270;2069120;-81
2022/07/08 03:48:48;;;;;;;8.00;4.30;;;;;;;14.22;94.48;97037.09;104790;1270;1684168;-81
2022/07/08 03:51:23;;;;;;;4.40;4.00;;;;;;;14.19;94.40;97045.16;99724;1270;5483108;-81
2022/07/08 03:53:59;;;;;;;4.20;3.80;;;;;;;14.16;94.44;97048.42;103000;1270;5375555;-81
2022/07/08 03:56:35;;;;;;;8.30;5.10;;;;;;;14.11;94.73;97046.64;107163;1270;158464;-81
2022/07/08 03:59:08;;;;;;;6.80;5.10;;;;;;;14.03;95.01;97048.67;103968;1270;2118409;-81
2022/07/08 04:01:40;;;;;;;5.90;4.70;;;;;;;13.98;95.33;97049.55;104340;1270;2276906;-81
2022/07/08 04:04:14;;;;;;;5.70;5.10;;;;;;;13.98;95.45;97049.98;105681;1270;2143981;-81
2022/07/08 04:06:45;;;;;;;5.70;5.20;;;;;;;13.96;95.60;97050.65;105565;1270;2293124;-81
2022/07/08 04:09:19;;;;;;;6.10;5.20;;;;;;;13.95;95.68;97052.90;105432;1270;2581087;-81
2022/07/08 04:11:50;;;;;;;5.30;4.60;;;;;;;13.96;95.75;97058.15;101400;1270;6336328;-81
2022/07/08 04:14:26;;;;;;;6.20;5.30;;;;;;;13.99;95.70;97058.65;105611;1268;2069262;-81
2022/07/08 04:16:58;;;;;;;5.30;4.60;;;;;;;14.01;95.81;97058.14;107336;1270;117483;-81
2022/07/08 04:19:32;;;;;;;6.80;5.20;;;;;;;14.04;95.72;97059.95;105917;1270;1957303;-81
2022/07/08 04:22:07;;;;;;;6.10;4.60;;;;;;;14.07;95.70;97066.91;106198;1270;1397349;-80
2022/07/08 04:24:41;;;;;;;5.60;5.10;;;;;;;14.09;95.53;97071.95;107107;1270;129668;-81
2022/07/08 04:27:12;;;;;;;8.20;4.70;;;;;;;14.11;95.51;97072.40;103748;1270;2058254;-81
2022/07/08 04:29:52;;;;;;;6.20;4.50;;;;;;;14.15;95.42;97068.77;107106;1270;138274;-81
2022/07/08 04:32:25;;;;;;;4.60;3.90;;;;;;;14.20;95.31;97072.61;103643;1268;4508343;-81
2022/07/08 04:34:59;;;;;;;5.50;4.50;;;;;;;14.24;95.17;97074.01;107478;1270;117691;-81
2022/07/08 04:37:32;;;;;;;5.10;4.60;;;;;;;14.30;95.18;97073.70;107439;1270;105414;-80
2022/07/08 04:40:08;;;;;;;6.10;4.30;;;;;;;14.35;95.03;97074.00;103462;1270;2367739;-79
2022/07/08 04:42:40;;;;;;;6.40;4.60;;;;;;;14.38;94.85;97076.57;105918;1270;1530932;-81
2022/07/08 04:45:15;;;;;;;4.60;3.70;;;;;;;14.40;94.67;97079.95;107193;1268;107346;-81
2022/07/08 04:47:47;;;;;;;5.70;4.40;;;;;;;14.43;94.47;97081.79;103904;1268;2657807;-81
2022/07/08 04:50:20;;;;;;;8.60;4.90;;;;;;;14.42;94.32;97081.30;105827;1267;1868979;-81
2022/07/08 04:52:53;;;;;;;6.30;5.00;;;;;;;14.37;94.29;97081.77;107279;1270;95327;-81
2022/07/08 04:55:29;;;;;;;6.50;4.40;;;;;;;14.33;94.41;97081.77;106253;1270;1519640;-81
2022/07/08 04:58:04;;;;;;;6.20;5.10;;;;;;;14.34;94.67;97084.62;106463;1267;1443561;-81
2022/07/08 05:00:38;;;;;;;6.30;5.50;;;;;;;14.36;94.82;97084.77;107295;1269;119649;-81
2022/07/08 05:03:11;;;;;;;7.60;6.20;;;;;;;14.36;95.02;97086.20;101710;1270;2132570;-81
2022/07/08 05:05:43;;;;;;;7.20;6.30;;;;;;;14.36;95.16;97090.69;105577;1270;2358396;-81
2022/07/08 05:08:15;;;;;;;8.90;6.90;;;;;;;14.39;95.28;97089.94;107452;1267;90978;-81
2022/07/08 05:10:48;;;;;;;8.50;5.70;;;;;;;14.43;95.35;97092.02;100653;1267;3571638;-81
2022/07/08 05:13:21;;;;;;;7.00;6.30;;;;;;;14.50;95.27;97097.48;107569;1264;112819;-81
2022/07/08 05:15:55;;;;;;;7.80;5.40;;;;;;;14.60;95.26;97103.24;107674;1264;131906;-81
2022/07/08 05:18:39;;;;;;;7.70;5.90;;;;;;;14.70;95.08;97101.33;101085;1264;2047948;-80
2022/07/08 05:21:12;;;;;;;7.80;5.80;;;;;;;14.78;94.97;97107.38;107544;1264;127674;-80
2022/07/08 05:23:47;;;;;;;6.50;5.30;;;;;;;14.88;94.73;97108.33;106025;1263;2115283;-81
2022/07/08 05:26:19;;;;;;;8.60;5.90;;;;;;;14.98;94.56;97113.56;104876;1261;2272639;-81
2022/07/08 05:28:51;;;;;;;6.30;5.00;;;;;;;15.04;94.03;97116.23;107704;1264;110377;-81
2022/07/08 05:31:28;;;;;;;6.20;4.30;;;;;;;15.10;93.67;97111.49;106407;1261;2053738;-81
2022/07/08 05:34:02;;;;;;;5.00;4.40;;;;;;;15.19;93.41;97113.45;103619;1264;2252888;-81
2022/07/08 05:36:36;;;;;;;5.00;3.90;;;;;;;15.26;93.03;97120.80;107642;1264;150926;-80
2022/07/08 05:39:14;;;;;;;5.20;4.50;;;;;;;15.36;92.82;97121.25;107742;1264;136967;-81
2022/07/08 05:41:51;;;;;;;6.50;5.10;;;;;;;15.44;92.27;97121.64;103479;1264;5538126;-80
2022/07/08 05:44:31;;;;;;;8.30;5.50;;;;;;;15.51;92.07;97124.34;102561;1264;3084721;-81
2022/07/08 05:47:09;;;;;;;5.00;4.10;;;;;;;15.61;91.84;97121.05;107814;1261;125723;-80
2022/07/08 05:49:51;;;;;;;6.20;4.70;;;;;;;15.72;91.33;97118.38;103538;1264;5423176;-80
2022/07/08 05:52:28;;;;;;;7.40;4.80;;;;;;;15.89;90.77;97121.42;101124;1264;2563429;-81
2022/07/08 05:55:01;;;;;;;7.80;5.10;;;;;;;16.09;90.52;97123.21;107803;1261;149046;-81
2022/07/08 05:57:39;;;;;;;6.10;4.70;;;;;;;16.38;90.22;97125.16;106670;1264;1567192;-81
2022/07/08 06:00:20;;;;;;;6.10;4.20;;;;;;;16.55;88.88;97131.91;104017;1262;2719022;-80
2022/07/08 06:02:52;;;;;;;8.10;4.90;;;;;;;16.67;88.02;97136.08;106285;1261;2031050;-81
2022/07/08 06:05:27;;;;;;;9.80;6.10;;;;;;;16.72;87.35;97134.30;107912;1261;106785;-81
2022/07/08 06:08:01;;;;;;;7.00;5.00;;;;;;;16.72;86.86;97132.30;104588;1261;2843060;-81
2022/07/08 06:10:51;;;;;;;6.60;5.00;;;;;;;16.78;86.37;97131.01;106407;1261;2098000;-80
2022/07/08 06:13:25;;;;;;;7.40;4.90;;;;;;;16.92;85.96;97132.14;107771;1262;111707;-81
2022/07/08 06:16:01;;;;;;;6.90;5.00;;;;;;;17.17;85.74;97132.65;102646;1264;2720372;-81
2022/07/08 06:18:38;;;;;;;6.00;4.90;;;;;;;17.43;85.13;97127.45;107836;1261;124687;-80
2022/07/08 06:21:13;;;;;;;5.80;5.00;;;;;;;17.64;84.33;97129.20;107545;1262;128873;-81
2022/07/08 06:24:00;;;;;;;5.70;4.50;;;;;;;17.76;83.54;97128.52;103032;1261;2201689;-81
2022/07/08 06:26:34;;;;;;;6.90;4.60;;;;;;;17.91;82.84;97130.54;107884;1261;125351;-81
2022/07/08 06:29:20;;;;;;;7.60;4.80;;;;;;;17.98;82.20;97129.84;105805;1261;2333350;-80
2022/07/08 06:31:53;;;;;;;5.80;4.70;;;;;;;18.10;81.72;97134.33;105770;1264;2361960;-81
2022/07/08 06:34:37;;;;;;;7.60;5.30;;;;;;;18.30;81.17;97130.84;108017;1261;122760;-81
2022/07/08 06:37:19;;;;;;;7.70;4.70;;;;;;;18.52;80.28;97136.27;100371;1262;5058230;-81
2022/07/08 06:39:55;;;;;;;5.40;4.20;;;;;;;18.70;79.54;97134.02;104994;1264;2044005;-81
2022/07/08 06:42:26;;;;;;;8.00;4.80;;;;;;;19.09;79.09;97141.14;107686;1261;129598;-81
2022/07/08 06:45:10;;;;;;;5.30;4.30;;;;;;;20.25;78.95;97137.07;104155;1264;2267939;-81
2022/07/08 06:47:46;;;;;;;6.10;3.90;;;;;;;21.37;76.66;97136.03;107698;1261;133682;-81
2022/07/08 06:50:22;;;;;;;8.70;4.50;;;;;;;22.43;75.15;97139.73;106434;1264;1622588;-81
2022/07/08 06:52:55;;;;;;;5.70;3.40;;;;;;;23.44;71.84;97143.59;102292;1264;2568147;-81
2022/07/08 06:55:32;;;;;;;6.70;4.50;;;;;;;23.29;66.80;97141.05;107998;1262;120103;-81
2022/07/08 06:58:06;;;;;;;6.60;4.00;;;;;;;23.46;67.43;97144.72;102490;1262;5158864;-81
2022/07/08 07:00:48;;;;;;;5.50;3.90;;;;;;;23.74;65.31;97145.83;102838;1262;2506674;-82
2022/07/08 07:03:24;;;;;;;5.50;3.70;;;;;;;23.92;64.17;97143.23;107760;1264;116810;-81
2022/07/08 07:05:59;;;;;;;5.90;3.30;;;;;;;23.70;63.67;97143.94;105998;1262;2405933;-81
2022/07/08 07:08:35;;;;;;;5.60;3.60;;;;;;;23.43;60.65;97142.39;104338;1264;2464869;-81
2022/07/08 07:11:13;;;;;;;6.80;3.30;;;;;;;22.69;60.36;97138.48;107740;1263;110038;-81
2022/07/08 07:13:47;;;;;;;4.90;3.40;;;;;;;21.90;59.95;97137.83;105158;1264;2035763;-81
2022/07/08 07:16:24;;;;;;;4.90;3.20;;;;;;;21.29;61.11;97140.38;104841;1262;2324386;-82
2022/07/08 07:18:58;;;;;;;6.70;3.20;;;;;;;21.51;62.51;97137.58;106323;1262;2130268;-81
2022/07/08 07:21:33;;;;;;;4.10;3.10;;;;;;;22.41;63.14;97133.04;107932;1261;138845;-81
2022/07/08 07:24:05;;;;;;;4.90;3.10;;;;;;;23.88;61.16;97135.65;102877;1263;2691760;-81
2022/07/08 07:26:38;;;;;;;7.10;2.80;;;;;;;26.33;60.90;97134.44;104889;1264;2038906;-81
2022/07/08 07:29:13;;;;;;;4.50;2.70;;;;;;;29.12;56.15;97133.72;105154;1262;2096127;-82
2022/07/08 07:31:47;;;;;;;4.20;2.80;;;;;;;29.53;52.30;97135.86;106187;1262;2132509;-82
2022/07/08 07:34:20;;;;;;;4.00;2.40;;;;;;;29.86;51.32;97137.66;105241;1261;3320664;-82
2022/07/08 07:36:54;;;;;;;5.50;2.60;;;;;;;30.83;49.32;97135.34;107007;1263;1239290;-82
2022/07/08 07:39:25;;;;;;;3.60;1.90;;;;;;;31.17;45.33;97142.32;107722;1264;118851;-82
2022/07/08 07:41:57;;;;;;;3.90;2.10;;;;;;;30.12;40.78;97142.26;105199;1264;1791781;-82
2022/07/08 07:44:36;;;;;;;4.80;2.30;;;;;;;26.60;40.38;97142.71;108090;1262;98782;-81
2022/07/08 07:47:08;;;;;;;4.10;2.40;;;;;;;23.84;45.64;97155.93;106755;1262;1446051;-81
2022/07/08 07:49:42;;;;;;;6.50;2.40;;;;;;;22.82;47.54;97157.29;101075;1264;4643432;-82
2022/07/08 07:52:21;;;;;;;3.90;2.50;;;;;;;22.62;49.13;97156.59;106359;1262;2027013;-81
2022/07/08 07:54:58;;;;;;;4.20;2.50;;;;;;;23.45;50.35;97167.31;107546;1264;148372;-82
2022/07/08 07:57:34;;;;;;;6.40;2.50;;;;;;;25.17;49.50;97160.62;100018;1262;5344678;-82
2022/07/08 08:00:16;;;;;;;5.30;2.20;;;;;;;26.24;46.15;97164.80;107747;1264;144006;-81
2022/07/08 08:02:48;;;;;;;3.90;2.30;;;;;;;25.36;46.70;97164.66;107673;1262;133554;-82
2022/07/08 08:05:22;;;;;;;5.20;2.70;;;;;;;24.95;47.02;97171.16;101725;1264;4147379;-81
2022/07/08 08:08:00;;;;;;;3.40;2.10;;;;;;;24.80;47.36;97171.32;107832;1262;102771;-82
2022/07/08 08:10:35;;;;;;;4.80;2.60;;;;;;;24.25;46.94;97172.77;103655;1262;5544874;-81
2022/07/08 08:13:11;;;;;;;3.40;2.20;;;;;;;23.26;47.30;97175.13;102812;1262;2464846;-81
2022/07/08 08:15:45;;;;;;;3.90;2.60;;;;;;;22.73;48.48;97180.08;106001;1262;2473770;-81
2022/07/08 08:18:18;;;;;;;5.10;2.60;;;;;;;23.24;49.55;97177.53;107776;1262;191707;-81
2022/07/08 08:20:59;;;;;;;4.10;2.40;;;;;;;22.78;49.17;97180.58;100644;1262;2598784;-81
2022/07/08 08:23:31;;;;;;;4.00;2.30;;;;;;;22.09;50.13;97179.14;106899;1264;1506001;-81
2022/07/08 08:26:11;;;;;;;4.00;2.30;;;;;;;21.74;51.39;97178.41;104294;1264;4241393;-81
2022/07/08 08:28:58;;;;;;;4.70;2.90;;;;;;;21.85;52.37;97181.00;104633;1264;2122227;-81
2022/07/08 08:31:32;;;;;;;5.00;2.40;;;;;;;22.56;51.75;97181.89;107982;1264;98654;-81
2022/07/08 08:34:05;;;;;;;4.40;2.60;;;;;;;22.84;50.90;97176.85;99483;1264;5404602;-81
2022/07/08 08:36:39;;;;;;;2.40;2.00;;;;;;;22.82;51.11;97175.33;104697;1261;4261386;-81
2022/07/08 08:39:14;;;;;;;6.60;2.40;;;;;;;22.84;50.60;97181.08;107795;1261;125278;-81
2022/07/08 08:41:48;;;;;;;4.20;2.90;;;;;;;22.84;51.29;97184.05;104743;1264;2231088;-81
2022/07/08 08:44:19;;;;;;;5.70;2.80;;;;;;;22.76;51.06;97185.63;107864;1262;108804;-81
2022/07/08 08:46:55;;;;;;;7.70;3.00;;;;;;;22.39;51.19;97185.17;107577;1262;180813;-81
2022/07/08 08:49:34;;;;;;;4.10;2.70;;;;;;;22.59;52.88;97187.23;105491;1263;1799006;-82
2022/07/08 08:52:16;;;;;;;4.20;2.80;;;;;;;22.51;51.63;97179.33;107916;1262;109828;-81
2022/07/08 08:54:51;;;;;;;4.10;2.50;;;;;;;22.41;52.97;97183.14;106126;1262;2294336;-81
2022/07/08 08:57:28;;;;;;;4.00;2.60;;;;;;;24.53;53.99;97183.77;104443;1262;2492392;-81
2022/07/08 09:00:04;;;;;;;4.00;2.20;;;;;;;26.39;51.75;97182.85;107994;1262;109129;-81
2022/07/08 09:02:43;;;;;;;6.40;2.30;;;;;;;26.59;49.10;97179.27;103734;1264;2341251;-81
2022/07/08 09:05:16;;;;;;;4.00;3.00;;;;;;;26.10;47.69;97185.00;106161;1261;2389937;-81
2022/07/08 09:07:48;;;;;;;5.70;3.00;;;;;;;25.05;46.94;97183.52;104106;1265;4580116;-81
2022/07/08 09:10:34;;;;;;;3.50;2.40;;;;;;;24.00;48.61;97183.27;102725;1262;2589078;-81
2022/07/08 09:13:14;;;;;;;5.50;3.20;;;;;;;23.16;49.53;97178.02;106704;1262;1442283;-82
2022/07/08 09:16:02;;;;;;;4.00;3.00;;;;;;;22.39;51.43;97174.21;104864;1264;2293443;-82
2022/07/08 09:18:40;;;;;;;5.80;3.20;;;;;;;21.97;52.17;97182.17;107383;1264;2165785;-80
2022/07/08 09:21:16;;;;;;;;;;;;;;;21.33;53.09;97181.52;107801;1262;112851;-81
2022/07/08 09:23:49;;;;;;;4.80;3.00;;;;;;;21.26;54.38;97179.81;106175;1264;2011913;-81
2022/07/08 09:26:29;;;;;;;2.80;2.20;;;;;;;21.38;54.39;97179.92;107714;1262;152806;-81
2022/07/08 09:29:21;;;;;;;4.20;2.20;;;;;;;21.59;53.70;97179.02;102587;1261;5072835;-82
2022/07/08 09:32:09;;;;;;;6.20;2.80;;;;;;;22.23;53.12;97175.52;104243;1264;2608867;-81
2022/07/08 09:34:47;;;;;;;5.10;2.90;;;;;;;22.36;51.87;97175.59;107550;1264;114873;-82
2022/07/08 09:37:22;;;;;;;5.00;2.80;;;;;;;22.16;51.46;97176.98;102270;1264;5355397;-81
2022/07/08 09:39:57;;;;;;;4.90;2.60;;;;;;;21.78;51.98;97175.39;106987;1261;1192407;-81
2022/07/08 09:42:44;;;;;;;8.10;3.00;;;;;;;21.58;52.53;97176.91;107855;1262;120486;-81
2022/07/08 09:45:19;;;;;;;5.20;3.10;;;;;;;21.65;53.84;97179.52;105945;1264;2246336;-81
2022/07/08 09:48:01;;;;;;;5.30;3.10;;;;;;;21.93;54.58;97178.95;106128;1264;1848102;-81
2022/07/08 09:50:49;;;;;;;5.30;3.10;;;;;;;22.19;54.27;97177.48;106328;1261;2051115;-80
2022/07/08 09:53:26;;;;;;;4.20;2.70;;;;;;;22.01;53.55;97179.42;102202;1261;5526179;-81
2022/07/08 09:56:00;;;;;;;4.40;3.00;;;;;;;22.06;53.76;97177.37;107635;1264;153490;-81
2022/07/08 09:59:13;;;;;;;4.50;2.60;;;;;;;22.40;54.52;97174.48;107443;1264;145994;-81
2022/07/08 10:01:45;;;;;;;2.80;2.00;;;;;;;22.82;52.77;97174.09;105232;1269;2528717;-81
2022/07/08 10:04:29;;;;;;;6.20;2.40;;;;;;;22.82;52.74;97170.59;106988;1269;125043;-81
2022/07/08 10:07:07;;;;;;;4.90;1.80;;;;;;;23.21;52.61;97163.40;107283;1269;130004;-81
2022/07/08 10:09:43;;;;;;;3.50;1.70;;;;;;;23.28;50.46;97163.50;101299;1269;5338479;-80
2022/07/08 10:12:19;;;;;;;5.00;2.00;;;;;;;23.26;51.23;97163.23;103858;1269;2404182;-80
2022/07/08 10:14:56;;;;;;;3.20;2.10;;;;;;;23.70;51.05;97164.19;105468;1269;2221740;-81
2022/07/08 10:17:43;;;;;;;3.90;1.90;;;;;;;23.75;49.52;97161.07;105746;1270;2007508;-81
2022/07/08 10:20:19;;;;;;;5.30;2.10;;;;;;;23.29;48.79;97162.36;104489;1264;2031997;-80
2022/07/08 10:23:07;;;;;;;4.20;2.10;;;;;;;23.12;49.44;97158.82;104542;1264;2441565;-81
2022/07/08 10:25:43;;;;;;;6.80;2.40;;;;;;;23.43;49.79;97157.80;106619;1264;1478556;-81
2022/07/08 10:28:22;;;;;;;3.70;2.10;;;;;;;23.87;51.26;97156.19;103430;1264;5440920;-80
2022/07/08 10:31:00;;;;;;;4.20;2.30;;;;;;;24.44;51.11;97154.63;102480;1264;4634678;-81
2022/07/08 10:33:48;;;;;;;3.00;2.00;;;;;;;24.05;48.47;97157.45;107785;1264;165250;-82
2022/07/08 10:36:26;;;;;;;5.40;2.20;;;;;;;23.13;48.43;97157.33;107647;1264;121670;-80
2022/07/08 10:39:09;;;;;;;2.00;1.70;;;;;;;22.72;49.37;97156.48;107720;1264;154238;-80
2022/07/08 10:41:44;;;;;;;3.20;2.00;;;;;;;22.79;49.79;97150.88;106089;1264;2223008;-79
2022/07/08 10:44:44;;;;;;;2.80;1.70;;;;;;;23.33;51.50;97149.00;104676;1264;2305724;-80
2022/07/08 10:47:29;;;;;;;5.00;2.20;;;;;;;23.71;50.22;97159.29;107795;1262;131917;-80
2022/07/08 10:50:14;;;;;;;;;;;;;;;23.36;48.33;97157.77;106566;1264;2013326;-80
2022/07/08 10:52:50;;;;;;;3.60;2.40;;;;;;;22.31;48.56;97158.07;102162;1264;2994920;-80
2022/07/08 10:55:32;;;;;;;3.70;2.30;;;;;;;21.63;50.01;97161.94;107773;1264;105022;-80
2022/07/08 10:58:14;;;;;;;3.60;2.20;;;;;;;21.36;50.94;97155.41;106128;1264;2242606;-80
2022/07/08 11:01:26;;;;;;;3.00;1.90;;;;;;;21.24;51.24;97152.94;104499;1264;2556068;-80
2022/07/08 11:04:22;;;;;;;3.20;2.00;;;;;;;20.97;52.47;97151.54;105903;1264;2604353;-80
2022/07/08 11:06:57;;;;;;;4.00;2.20;;;;;;;20.95;52.58;97147.84;106277;1263;2063886;-80
2022/07/08 11:09:29;;;;;;;3.70;2.20;;;;;;;21.14;52.91;97149.18;107967;1264;111134;-80
2022/07/08 11:12:11;;;;;;;2.90;1.90;;;;;;;21.73;52.52;97146.08;102823;1264;5268370;-80
2022/07/08 11:14:49;;;;;;;5.40;2.30;;;;;;;22.07;51.59;97149.24;107673;1264;136799;-79
2022/07/08 11:17:28;;;;;;;2.60;1.70;;;;;;;21.82;51.28;97152.67;107361;1264;107022;-80
2022/07/08 11:20:01;;;;;;;3.20;2.60;;;;;;;21.65;51.32;97157.23;101837;1264;5191646;-80
2022/07/08 11:22:39;;;;;;;7.10;3.80;;;;;;;21.57;52.66;97155.91;107878;1264;136841;-79
2022/07/08 11:25:23;;;;;;;6.90;3.40;;;;;;;21.58;54.21;97157.48;106967;1264;1322422;-80
2022/07/08 11:27:55;;;;;;;6.20;3.20;;;;;;;21.45;54.85;97155.80;103796;1264;2334910;-80
2022/07/08 11:30:33;;;;;;;6.20;3.60;;;;;;;21.11;55.10;97153.71;107923;1264;106604;-80
2022/07/08 11:33:06;;;;;;;6.30;3.40;;;;;;;20.75;55.43;97150.54;106427;1263;1878732;-80
2022/07/08 11:35:41;;;;;;;4.90;3.50;;;;;;;20.57;56.03;97150.09;103013;1264;2262222;-80
2022/07/08 11:38:13;;;;;;;5.60;3.20;;;;;;;20.41;56.37;97155.73;107783;1264;123697;-80
2022/07/08 11:40:51;;;;;;;5.70;3.20;;;;;;;20.31;56.57;97161.25;107000;1264;1230416;-80
2022/07/08 11:43:25;;;;;;;5.50;4.10;;;;;;;20.17;56.83;97160.33;102934;1264;1797241;-81
2022/07/08 11:46:16;;;;;;;4.70;3.50;;;;;;;19.88;57.40;97164.14;108001;1264;115671;-81
2022/07/08 11:48:53;;;;;;;4.80;3.50;;;;;;;19.71;57.63;97161.93;107745;1264;163688;-81
2022/07/08 11:51:25;;;;;;;5.90;3.70;;;;;;;19.64;57.86;97161.65;106059;1264;2496809;-80
2022/07/08 11:54:02;;;;;;;4.90;3.20;;;;;;;19.68;58.15;97153.81;107863;1264;162865;-80
2022/07/08 11:56:45;;;;;;;5.00;3.70;;;;;;;19.85;58.69;97153.10;107797;1264;128713;-80
2022/07/08 11:59:25;;;;;;;5.00;3.80;;;;;;;19.97;59.35;97145.75;107424;1264;147638;-79